Time;durP1;ratioP1;P1;durP2;ratioP2;P2;SDS_P1;SDS_P2;PMS_P1;PMS_P2;Temp;Humidity;BMP_temperature;BMP_pressure;BME280_temperature;BME280_humidity;BME280_pressure;Samples;Min_cycle;Max_cycle;Signal;HPM_P1;HPM_P2
2023/01/08 00:01:49;;;;;;;3.35;2.10;;;;;;;18.49;49.25;100238.06;5028271;28;20065;-52
2023/01/08 00:04:16;;;;;;;2.60;1.98;;;;;;;18.49;48.98;100231.88;5027941;28;20045;-53
2023/01/08 00:06:42;;;;;;;3.65;2.30;;;;;;;18.49;49.39;100237.25;5028353;28;20022;-50
2023/01/08 00:09:11;;;;;;;3.33;2.40;;;;;;;18.48;49.08;100230.19;5009957;28;20117;-53
2023/01/08 00:11:36;;;;;;;2.42;1.75;;;;;;;18.47;48.92;100229.34;5028318;28;20018;-51
2023/01/08 00:14:02;;;;;;;2.72;2.00;;;;;;;18.47;48.96;100218.56;5028038;28;20040;-49
2023/01/08 00:16:28;;;;;;;4.32;2.30;;;;;;;18.44;49.03;100207.34;5028041;28;20032;-52
2023/01/08 00:18:54;;;;;;;3.53;2.45;;;;;;;18.43;48.98;100213.72;5027963;28;20018;-48
2023/01/08 00:21:19;;;;;;;2.70;1.90;;;;;;;18.45;49.00;100217.94;5028099;28;20032;-50
2023/01/08 00:23:45;;;;;;;2.75;1.90;;;;;;;18.45;48.94;100215.22;5027609;28;20025;-47
2023/01/08 00:26:11;;;;;;;2.50;1.60;;;;;;;18.43;48.99;100213.72;5027836;28;20022;-53
2023/01/08 00:28:37;;;;;;;3.00;2.08;;;;;;;18.44;49.27;100213.56;5027692;28;20026;-49
2023/01/08 00:31:03;;;;;;;2.80;1.88;;;;;;;18.44;49.12;100205.50;5027059;28;20040;-52
2023/01/08 00:33:29;;;;;;;1.98;1.50;;;;;;;18.43;49.02;100213.72;5027574;28;20092;-48
2023/01/08 00:35:54;;;;;;;2.78;1.95;;;;;;;18.42;49.24;100202.13;5027131;28;20029;-51
2023/01/08 00:38:19;;;;;;;2.40;1.70;;;;;;;18.41;49.23;100200.47;5027128;28;20088;-47
2023/01/08 00:40:47;;;;;;;2.42;1.70;;;;;;;18.38;48.94;100190.06;5027337;28;20037;-51
2023/01/08 00:43:12;;;;;;;3.53;1.73;;;;;;;18.41;49.38;100200.47;5009262;28;20030;-50
2023/01/08 00:45:37;;;;;;;3.03;1.88;;;;;;;18.41;49.11;100210.41;5027401;28;20096;-52
2023/01/08 00:48:02;;;;;;;2.00;1.60;;;;;;;18.40;49.11;100206.03;5027077;28;20040;-49
2023/01/08 00:50:28;;;;;;;3.30;1.63;;;;;;;18.40;49.27;100208.72;5027097;28;20094;-47
2023/01/08 00:52:53;;;;;;;2.95;2.00;;;;;;;18.38;49.00;100195.44;5027046;28;20029;-48
2023/01/08 00:55:18;;;;;;;2.25;1.80;;;;;;;18.39;48.91;100202.53;5027301;28;20048;-47
2023/01/08 00:57:44;;;;;;;2.00;1.65;;;;;;;18.37;48.90;100201.00;5027106;28;20445;-49
2023/01/08 01:00:13;;;;;;;2.10;1.58;;;;;;;18.37;49.38;100204.53;5027307;28;20040;-51
2023/01/08 01:02:38;;;;;;;;;;;;;;;18.37;49.28;100198.31;5027510;28;20098;-51
2023/01/08 01:05:04;;;;;;;2.38;1.58;;;;;;;18.36;48.97;100180.50;5026941;28;19921;-51
2023/01/08 01:07:30;;;;;;;3.72;2.47;;;;;;;18.36;49.15;100191.28;5027156;28;20045;-52
2023/01/08 01:09:55;;;;;;;2.83;1.90;;;;;;;18.34;49.29;100183.38;5026779;28;20033;-50
2023/01/08 01:12:21;;;;;;;3.13;2.00;;;;;;;18.34;49.25;100175.28;5026782;28;20105;-52
2023/01/08 01:14:46;;;;;;;3.45;1.70;;;;;;;18.33;49.24;100175.47;5027034;28;20037;-46
2023/01/08 01:17:11;;;;;;;2.85;1.80;;;;;;;18.33;49.50;100183.56;5026909;28;20105;-51
2023/01/08 01:19:37;;;;;;;2.28;2.00;;;;;;;18.33;49.43;100183.56;5026513;28;20109;-48
2023/01/08 01:22:03;;;;;;;3.08;2.17;;;;;;;18.32;49.20;100177.34;5026898;28;20089;-50
2023/01/08 01:24:28;;;;;;;2.53;1.60;;;;;;;18.32;49.17;100177.34;5026685;28;20030;-49
2023/01/08 01:26:55;;;;;;;2.55;1.80;;;;;;;18.32;49.12;100182.72;5026938;28;20036;-49
2023/01/08 01:29:21;;;;;;;3.63;1.95;;;;;;;18.31;48.92;100178.38;5026827;28;20037;-53
2023/01/08 01:31:46;;;;;;;1.88;1.70;;;;;;;18.30;49.27;100175.84;5026505;28;20030;-51
2023/01/08 01:34:11;;;;;;;2.85;1.90;;;;;;;18.31;49.07;100190.97;5026332;28;20040;-49
2023/01/08 01:36:37;;;;;;;2.17;1.90;;;;;;;18.31;49.20;100185.56;5026301;28;20066;-49
2023/01/08 01:39:03;;;;;;;2.50;1.55;;;;;;;18.30;49.32;100182.06;5026257;28;20438;-48
2023/01/08 01:41:31;;;;;;;3.33;1.90;;;;;;;18.30;49.25;100186.59;5026526;28;20025;-50
2023/01/08 01:43:59;;;;;;;1.92;1.38;;;;;;;18.30;49.23;100183.91;5008835;28;20026;-51
2023/01/08 01:46:38;;;;;;;2.88;1.95;;;;;;;18.16;49.38;100170.25;5026451;28;20085;-49
2023/01/08 01:49:09;;;;;;;2.30;1.70;;;;;;;18.27;49.35;100195.91;5026379;28;20026;-50
2023/01/08 01:51:35;;;;;;;3.20;2.10;;;;;;;18.23;49.24;100181.97;5026485;28;20105;-47
2023/01/08 01:54:03;;;;;;;1.98;1.45;;;;;;;18.28;49.18;100191.34;5026203;28;20034;-50
2023/01/08 01:56:28;;;;;;;3.00;1.73;;;;;;;18.27;49.38;100192.38;5026257;28;20456;-52
2023/01/08 01:58:53;;;;;;;2.80;2.13;;;;;;;18.26;49.39;100194.19;5026155;28;20026;-52
2023/01/08 02:01:19;;;;;;;2.45;1.67;;;;;;;18.18;49.46;100181.69;5026069;28;20026;-48
2023/01/08 02:03:44;;;;;;;2.22;1.70;;;;;;;18.25;49.28;100189.84;5008192;28;20050;-51
2023/01/08 02:06:28;;;;;;;2.28;1.65;;;;;;;18.25;49.18;100203.28;5026027;28;20083;-51
2023/01/08 02:09:11;;;;;;;2.13;1.60;;;;;;;18.25;49.06;100192.53;5025784;28;20037;-47
2023/01/08 02:11:45;;;;;;;2.10;1.50;;;;;;;18.25;49.06;100192.53;5008304;28;20026;-49
2023/01/08 02:14:27;;;;;;;3.17;1.63;;;;;;;18.24;49.25;100191.69;4991300;28;20679;-50
2023/01/08 02:17:15;;;;;;;3.35;1.50;;;;;;;18.23;49.07;100189.19;5025700;28;20422;-48
2023/01/08 02:19:48;;;;;;;1.67;1.45;;;;;;;18.22;49.04;100195.56;5007988;28;20025;-50
2023/01/08 02:22:39;;;;;;;3.13;1.90;;;;;;;18.22;48.91;100188.38;5025443;28;20053;-53
2023/01/08 02:25:30;;;;;;;1.83;1.40;;;;;;;18.20;49.11;100184.19;5025849;28;20014;-52
2023/01/08 02:27:56;;;;;;;1.75;1.30;;;;;;;18.20;49.33;100185.00;4971342;28;20042;-47
2023/01/08 02:30:21;;;;;;;2.63;1.88;;;;;;;18.20;49.36;100185.00;5024904;28;20045;-50
2023/01/08 02:32:46;;;;;;;3.20;1.73;;;;;;;18.18;49.25;100183.50;5025195;28;20475;-46
2023/01/08 02:35:12;;;;;;;2.30;1.52;;;;;;;18.17;49.28;100171.06;5024811;28;20030;-47
2023/01/08 02:37:37;;;;;;;3.22;1.77;;;;;;;18.11;49.18;100158.38;5025018;28;20062;-47
2023/01/08 02:40:06;;;;;;;1.83;1.58;;;;;;;18.19;48.98;100177.13;5025292;28;20033;-48
2023/01/08 02:42:50;;;;;;;1.58;1.40;;;;;;;18.18;49.33;100176.31;5025187;28;20419;-51
2023/01/08 02:45:30;;;;;;;1.95;1.52;;;;;;;18.18;49.14;100161.97;5025447;28;20029;-48
2023/01/08 02:48:31;;;;;;;2.58;1.50;;;;;;;18.17;49.38;100160.31;5025411;28;20037;-51
2023/01/08 02:51:22;;;;;;;3.05;1.83;;;;;;;18.16;49.13;100159.47;5025311;28;20052;-48
2023/01/08 02:53:50;;;;;;;1.73;1.48;;;;;;;18.16;49.30;100159.47;5018191;28;20034;-47
2023/01/08 02:56:36;;;;;;;2.30;1.50;;;;;;;18.13;49.41;100146.38;5007410;28;20030;-50
2023/01/08 02:59:04;;;;;;;1.98;1.60;;;;;;;18.13;49.36;100143.69;5006803;28;20045;-51
2023/01/08 03:01:30;;;;;;;2.30;1.52;;;;;;;18.12;49.12;100144.72;5007571;28;20061;-50
2023/01/08 03:03:59;;;;;;;2.72;1.50;;;;;;;18.13;49.40;100148.25;5024766;28;20156;-52
2023/01/08 03:06:25;;;;;;;2.00;1.60;;;;;;;18.10;49.33;100151.31;5007502;28;20022;-52
2023/01/08 03:08:52;;;;;;;2.00;1.60;;;;;;;18.13;49.44;100150.94;5024759;28;20456;-49
2023/01/08 03:11:19;;;;;;;2.30;1.67;;;;;;;18.11;49.16;100132.28;5007259;28;20026;-47
2023/01/08 03:14:31;;;;;;;2.38;1.40;;;;;;;18.11;49.33;100134.16;5006995;28;20041;-49
2023/01/08 03:17:32;;;;;;;2.00;1.70;;;;;;;18.11;49.22;100128.78;5024781;28;20102;-49
2023/01/08 03:20:02;;;;;;;3.35;1.60;;;;;;;18.10;49.32;100130.63;5006980;28;20030;-48
2023/01/08 03:22:29;;;;;;;1.55;1.45;;;;;;;18.09;49.24;100131.63;5007082;28;20033;-50
2023/01/08 03:24:57;;;;;;;2.35;1.60;;;;;;;18.04;49.39;100120.59;5007167;28;20033;-49
2023/01/08 03:27:27;;;;;;;1.90;1.40;;;;;;;18.09;49.19;100128.09;5023827;28;20034;-49
2023/01/08 03:29:54;;;;;;;2.25;1.77;;;;;;;18.08;49.53;100131.81;4990734;28;20438;-49
2023/01/08 03:32:21;;;;;;;1.95;1.35;;;;;;;18.08;49.48;100139.88;5007246;28;20088;-49
2023/01/08 03:34:47;;;;;;;2.15;1.65;;;;;;;18.03;49.42;100127.00;5006947;28;20034;-49
2023/01/08 03:37:15;;;;;;;2.15;1.42;;;;;;;18.07;49.41;100130.16;5006645;28;20049;-51
2023/01/08 03:39:46;;;;;;;3.30;1.60;;;;;;;18.06;49.39;100132.00;5007044;28;20025;-47
2023/01/08 03:42:14;;;;;;;2.22;1.38;;;;;;;18.06;49.55;100123.94;5024296;28;20061;-50
2023/01/08 03:44:39;;;;;;;2.15;1.60;;;;;;;18.06;49.42;100126.63;5006639;28;20502;-48
2023/01/08 03:47:07;;;;;;;1.45;1.20;;;;;;;17.96;49.62;100102.66;5024606;28;20029;-48
2023/01/08 03:49:34;;;;;;;1.67;1.40;;;;;;;17.98;49.30;100115.94;5006605;28;20414;-52
2023/01/08 03:51:59;;;;;;;1.98;1.40;;;;;;;18.05;49.21;100118.72;5006856;28;20033;-48
2023/01/08 03:54:29;;;;;;;2.13;1.92;;;;;;;18.04;49.46;100119.75;5006636;28;20066;-49
2023/01/08 03:56:54;;;;;;;4.03;1.33;;;;;;;18.03;49.64;100127.00;5024052;28;20049;-50
2023/01/08 03:59:20;;;;;;;1.55;1.30;;;;;;;18.01;49.35;100128.19;5024289;28;20026;-50
2023/01/08 04:01:45;;;;;;;1.65;1.30;;;;;;;18.04;49.54;100136.72;5024401;28;20048;-49
2023/01/08 04:04:11;;;;;;;1.80;1.20;;;;;;;18.03;49.47;100144.97;5024044;28;20041;-52
2023/01/08 04:06:36;;;;;;;2.05;1.52;;;;;;;18.03;49.55;100140.44;5024129;28;20018;-51
2023/01/08 04:09:02;;;;;;;2.35;1.50;;;;;;;18.02;49.51;100140.63;5024206;28;20438;-50
2023/01/08 04:11:27;;;;;;;2.20;1.30;;;;;;;17.99;49.65;100139.13;5024015;28;20017;-52
2023/01/08 04:13:52;;;;;;;2.22;1.35;;;;;;;18.02;49.50;100140.63;5023915;28;20034;-51
2023/01/08 04:16:18;;;;;;;1.75;1.30;;;;;;;17.95;49.59;100125.19;5023750;28;20033;-50
2023/01/08 04:18:43;;;;;;;2.50;1.30;;;;;;;18.01;49.17;100133.56;5023751;28;20025;-48
2023/01/08 04:21:08;;;;;;;1.77;1.30;;;;;;;18.01;49.45;100128.19;5024296;28;20049;-49
2023/01/08 04:23:33;;;;;;;2.35;1.20;;;;;;;18.01;49.49;100120.09;5024062;28;20079;-53
2023/01/08 04:25:59;;;;;;;2.50;1.10;;;;;;;18.01;49.48;100115.59;5024100;28;20014;-50
2023/01/08 04:28:24;;;;;;;1.40;1.20;;;;;;;17.99;49.46;100115.75;5006204;28;20470;-52
2023/01/08 04:30:50;;;;;;;1.90;1.40;;;;;;;18.00;49.70;100105.81;5024153;28;20076;-51
2023/01/08 04:33:15;;;;;;;1.60;1.20;;;;;;;17.95;49.34;100094.78;5024123;28;20034;-51
2023/01/08 04:35:41;;;;;;;2.05;1.17;;;;;;;17.99;49.32;100107.69;5023674;28;20030;-49
2023/01/08 04:38:06;;;;;;;1.48;1.38;;;;;;;18.00;49.54;100100.44;5025549;28;20049;-50
2023/01/08 04:40:32;;;;;;;1.85;1.45;;;;;;;17.99;49.45;100094.22;5027662;28;20029;-50
2023/01/08 04:42:57;;;;;;;2.03;1.60;;;;;;;18.00;49.22;100100.44;5009970;28;20053;-54
2023/01/08 04:45:23;;;;;;;3.47;1.50;;;;;;;17.99;49.45;100090.72;5027576;28;20041;-54
2023/01/08 04:47:54;;;;;;;1.73;1.20;;;;;;;17.98;49.07;100099.81;5027069;28;20037;-54
2023/01/08 04:50:19;;;;;;;1.85;1.25;;;;;;;17.92;49.25;100085.22;5026038;28;20033;-52
2023/01/08 04:52:45;;;;;;;1.70;1.27;;;;;;;17.97;49.25;100090.91;5015487;28;20052;-55
2023/01/08 04:55:10;;;;;;;1.50;1.20;;;;;;;17.97;49.60;100103.53;5027249;28;20030;-50
2023/01/08 04:57:35;;;;;;;1.40;1.30;;;;;;;17.95;49.45;100087.53;5027141;28;20112;-50
2023/01/08 05:00:00;;;;;;;1.63;1.30;;;;;;;17.84;49.53;100079.06;5027175;28;20064;-52
2023/01/08 05:02:26;;;;;;;3.08;1.40;;;;;;;17.94;49.47;100096.63;5009180;28;20049;-51
2023/01/08 05:04:51;;;;;;;2.08;1.50;;;;;;;17.92;49.38;100079.84;5027018;28;20045;-53
2023/01/08 05:07:16;;;;;;;1.55;1.25;;;;;;;17.94;49.26;100077.81;5027086;28;20037;-54
2023/01/08 05:09:41;;;;;;;1.60;1.35;;;;;;;17.93;49.55;100076.16;5026963;28;20034;-52
2023/01/08 05:12:07;;;;;;;1.83;1.27;;;;;;;17.93;49.37;100078.84;5026673;28;20025;-55
2023/01/08 05:14:32;;;;;;;1.67;1.17;;;;;;;17.93;49.59;100083.38;5027082;28;20052;-54
2023/01/08 05:16:57;;;;;;;1.67;1.20;;;;;;;17.94;49.41;100091.25;5026297;28;20025;-53
2023/01/08 05:19:22;;;;;;;1.38;1.25;;;;;;;17.93;49.50;100080.69;5026453;28;20038;-52
2023/01/08 05:21:48;;;;;;;2.00;1.10;;;;;;;17.94;49.27;100093.13;5026464;28;20034;-53
2023/01/08 05:24:13;;;;;;;2.25;1.35;;;;;;;17.94;49.22;100082.34;5026937;28;20454;-55
2023/01/08 05:26:38;;;;;;;1.52;1.05;;;;;;;17.94;49.50;100074.28;5026110;28;20037;-53
2023/01/08 05:29:03;;;;;;;1.40;1.00;;;;;;;17.92;49.55;100077.16;5026566;28;20022;-51
2023/01/08 05:31:29;;;;;;;1.27;1.17;;;;;;;17.93;49.29;100081.53;5026450;28;20090;-52
2023/01/08 05:33:56;;;;;;;2.97;1.65;;;;;;;17.94;49.26;100077.81;5025387;28;20475;-54
2023/01/08 05:36:22;;;;;;;1.95;1.27;;;;;;;17.93;49.31;100075.31;5025684;28;20102;-51
2023/01/08 05:38:47;;;;;;;1.10;1.00;;;;;;;17.93;49.24;100065.38;5026055;28;20037;-49
2023/01/08 05:41:12;;;;;;;1.55;1.10;;;;;;;17.92;49.24;100070.94;5025887;28;20057;-51
2023/01/08 05:43:37;;;;;;;1.50;1.02;;;;;;;17.94;49.35;100068.91;5025536;28;20115;-50
2023/01/08 05:46:03;;;;;;;1.10;1.00;;;;;;;17.94;49.25;100072.44;5025835;28;20041;-48
2023/01/08 05:48:29;;;;;;;1.17;0.93;;;;;;;17.94;49.59;100072.44;5025154;28;20017;-53
2023/01/08 05:50:55;;;;;;;1.60;1.30;;;;;;;17.92;49.54;100066.38;5025056;28;20022;-51
2023/01/08 05:53:20;;;;;;;2.47;1.33;;;;;;;17.95;49.60;100068.72;5022971;28;20495;-53
2023/01/08 05:55:45;;;;;;;1.35;1.25;;;;;;;17.94;49.29;100071.59;5025323;28;20041;-53
2023/01/08 05:58:11;;;;;;;3.03;1.27;;;;;;;17.97;49.58;100079.31;5025532;28;20121;-47
2023/01/08 06:00:37;;;;;;;1.23;1.10;;;;;;;17.96;49.28;100081.13;5025637;28;20026;-47
2023/01/08 06:03:02;;;;;;;2.17;1.42;;;;;;;17.97;49.59;100074.78;5025487;28;20104;-50
2023/01/08 06:05:30;;;;;;;1.85;1.33;;;;;;;17.93;49.41;100062.69;5024265;28;20383;-53
2023/01/08 06:07:55;;;;;;;2.05;1.05;;;;;;;17.93;49.37;100072.63;5023103;28;20094;-50
2023/01/08 06:10:20;;;;;;;1.33;1.10;;;;;;;17.98;49.38;100073.75;5019889;28;20030;-49
2023/01/08 06:12:46;;;;;;;2.08;1.27;;;;;;;17.99;49.44;100078.09;5006909;28;20025;-51
2023/01/08 06:15:11;;;;;;;1.33;1.00;;;;;;;17.95;49.60;100060.66;5025188;28;20026;-48
2023/01/08 06:17:37;;;;;;;1.20;1.10;;;;;;;18.00;49.32;100060.09;5024512;28;20021;-49
2023/01/08 06:20:02;;;;;;;2.90;1.30;;;;;;;18.02;49.57;100057.25;5025081;28;20064;-50
2023/01/08 06:22:27;;;;;;;1.90;1.05;;;;;;;18.03;49.68;100048.16;5011126;28;20125;-51
2023/01/08 06:24:53;;;;;;;1.58;1.10;;;;;;;18.03;49.94;100056.22;5009005;28;20033;-47
2023/01/08 06:27:18;;;;;;;1.60;1.10;;;;;;;18.03;49.84;100065.13;4999110;28;20022;-51
2023/01/08 06:29:43;;;;;;;1.20;1.10;;;;;;;18.03;50.01;100072.34;5024566;28;20048;-54
2023/01/08 06:32:08;;;;;;;2.33;1.50;;;;;;;18.03;50.03;100080.44;5024806;28;20095;-48
2023/01/08 06:34:34;;;;;;;1.80;1.30;;;;;;;18.04;50.01;100087.47;5024355;28;20100;-48
2023/01/08 06:36:59;;;;;;;2.13;1.10;;;;;;;18.06;50.13;100088.97;5024400;28;20053;-54
2023/01/08 06:39:24;;;;;;;3.10;1.08;;;;;;;18.05;49.87;100075.69;5024831;28;20338;-53
2023/01/08 06:41:50;;;;;;;2.42;1.40;;;;;;;18.07;50.11;100079.03;5020840;28;20033;-56
2023/01/08 06:44:15;;;;;;;1.48;1.20;;;;;;;18.07;50.12;100077.19;5003693;28;20037;-53
2023/01/08 06:46:40;;;;;;;2.90;1.30;;;;;;;18.09;50.24;100066.22;5022225;28;20100;-54
2023/01/08 06:49:06;;;;;;;2.15;1.05;;;;;;;18.12;50.43;100071.25;5024132;28;20037;-55
2023/01/08 06:51:32;;;;;;;2.13;1.30;;;;;;;18.09;50.39;100072.44;5024270;28;20037;-54
2023/01/08 06:53:57;;;;;;;1.90;1.20;;;;;;;18.15;50.66;100079.81;5024113;28;20037;-54
2023/01/08 06:56:22;;;;;;;1.55;1.17;;;;;;;18.16;50.67;100081.47;5021982;28;20068;-55
2023/01/08 06:58:47;;;;;;;2.53;1.20;;;;;;;18.18;50.63;100078.56;5024007;28;20048;-52
2023/01/08 07:01:14;;;;;;;1.38;1.05;;;;;;;18.19;50.67;100082.97;5010995;28;20034;-51
2023/01/08 07:03:39;;;;;;;2.53;1.73;;;;;;;18.15;50.47;100077.09;5024218;28;20101;-51
2023/01/08 07:06:05;;;;;;;2.22;1.50;;;;;;;18.21;50.74;100081.75;5019230;28;20034;-51
2023/01/08 07:08:30;;;;;;;2.10;1.42;;;;;;;18.23;50.59;100081.56;5023615;28;20032;-52
2023/01/08 07:10:56;;;;;;;1.20;1.00;;;;;;;18.24;50.79;100083.25;5021039;28;20021;-51
2023/01/08 07:13:22;;;;;;;1.90;1.33;;;;;;;18.24;50.55;100081.38;5024257;28;20033;-50
2023/01/08 07:15:48;;;;;;;2.28;1.20;;;;;;;18.25;50.63;100079.53;5019257;28;20104;-50
2023/01/08 07:18:13;;;;;;;1.30;1.20;;;;;;;18.28;50.53;100083.72;5023811;28;20025;-52
2023/01/08 07:20:38;;;;;;;2.47;1.20;;;;;;;18.28;50.56;100089.94;5021277;28;20022;-52
2023/01/08 07:23:06;;;;;;;1.55;1.13;;;;;;;18.29;50.60;100090.75;5022607;28;20044;-48
2023/01/08 07:25:31;;;;;;;1.88;1.60;;;;;;;18.30;50.75;100089.72;5024128;28;20028;-48
2023/01/08 07:27:57;;;;;;;1.48;1.13;;;;;;;18.30;50.59;100084.34;5015255;28;20081;-48
2023/01/08 07:30:22;;;;;;;2.10;1.10;;;;;;;18.31;50.64;100086.00;5024077;28;20037;-48
2023/01/08 07:32:48;;;;;;;3.53;1.38;;;;;;;18.33;50.80;100084.00;5023977;28;20026;-55
2023/01/08 07:35:13;;;;;;;3.00;1.30;;;;;;;18.37;50.72;100083.44;5022998;28;20093;-48
2023/01/08 07:37:39;;;;;;;3.85;1.30;;;;;;;18.42;50.40;100089.09;5023741;28;20062;-50
2023/01/08 07:40:05;;;;;;;2.28;1.42;;;;;;;18.47;50.37;100088.53;5023635;28;20030;-48
2023/01/08 07:42:31;;;;;;;1.90;1.23;;;;;;;18.46;50.19;100093.06;5023144;28;20084;-50
2023/01/08 07:44:56;;;;;;;2.22;1.50;;;;;;;18.48;50.00;100088.38;5023713;28;20125;-54
2023/01/08 07:47:21;;;;;;;2.22;1.27;;;;;;;18.51;50.23;100092.53;5014047;28;20034;-52
2023/01/08 07:49:46;;;;;;;1.50;1.10;;;;;;;18.53;49.89;100092.34;5023793;28;20104;-50
2023/01/08 07:52:12;;;;;;;3.05;1.55;;;;;;;18.53;50.11;100085.09;5023466;28;20026;-49
2023/01/08 07:54:37;;;;;;;2.15;1.23;;;;;;;18.53;49.97;100081.59;5020896;28;20030;-52
2023/01/08 07:57:02;;;;;;;2.35;1.45;;;;;;;18.56;49.75;100098.19;5021639;28;20034;-49
2023/01/08 07:59:27;;;;;;;3.30;1.73;;;;;;;18.57;49.88;100089.09;5024073;28;20026;-51
2023/01/08 08:01:53;;;;;;;3.33;1.48;;;;;;;18.56;49.62;100082.03;5023391;28;20494;-53
2023/01/08 08:04:18;;;;;;;1.80;1.33;;;;;;;18.58;49.65;100076.47;5023298;28;20475;-51
2023/01/08 08:06:43;;;;;;;2.50;1.40;;;;;;;18.57;49.43;100067.56;5018305;28;20022;-50
2023/01/08 08:09:08;;;;;;;2.92;1.30;;;;;;;18.59;49.97;100070.88;5017092;28;20017;-51
2023/01/08 08:11:34;;;;;;;2.53;1.40;;;;;;;18.54;49.54;100059.03;5009552;28;20077;-51
2023/01/08 08:13:59;;;;;;;2.58;1.40;;;;;;;18.61;49.51;100068.88;5026828;28;20509;-49
2023/01/08 08:16:24;;;;;;;4.05;1.70;;;;;;;18.58;49.63;100057.63;5026984;28;20056;-55
2023/01/08 08:18:49;;;;;;;2.70;1.70;;;;;;;18.59;49.80;100061.97;5026750;28;20065;-52
2023/01/08 08:21:15;;;;;;;2.88;1.63;;;;;;;18.55;49.76;100055.31;5027240;28;20113;-53
2023/01/08 08:23:40;;;;;;;2.88;1.33;;;;;;;18.60;49.48;100051.00;5024335;28;20033;-55
2023/01/08 08:26:06;;;;;;;1.83;1.40;;;;;;;18.59;49.64;100041.28;5027108;28;20049;-55
2023/01/08 08:28:32;;;;;;;6.07;2.47;;;;;;;18.56;49.30;100054.28;5027110;28;20505;-51
2023/01/08 08:30:57;;;;;;;4.05;2.00;;;;;;;18.62;49.29;100064.31;5027007;28;20093;-52
2023/01/08 08:33:22;;;;;;;2.03;1.50;;;;;;;18.61;49.19;100051.88;5026450;28;20033;-52
2023/01/08 08:35:49;;;;;;;2.50;1.40;;;;;;;18.63;49.32;100057.91;5025916;28;20105;-53
2023/01/08 08:38:14;;;;;;;2.28;1.20;;;;;;;18.62;48.81;100053.53;5026714;28;20089;-50
2023/01/08 08:40:41;;;;;;;2.72;1.40;;;;;;;18.62;49.01;100053.53;5026645;28;20041;-53
2023/01/08 08:43:08;;;;;;;4.20;2.00;;;;;;;18.62;49.24;100057.06;5026997;28;20049;-53
2023/01/08 08:45:33;;;;;;;2.78;1.38;;;;;;;18.63;48.60;100056.03;5009401;28;20064;-54
2023/01/08 08:47:58;;;;;;;3.63;1.45;;;;;;;18.63;48.83;100053.34;5027330;28;20041;-49
2023/01/08 08:50:24;;;;;;;2.80;1.17;;;;;;;18.67;48.69;100057.34;5027343;28;20029;-52
2023/01/08 08:52:49;;;;;;;2.35;1.38;;;;;;;18.68;48.64;100047.38;5027221;28;20032;-50
2023/01/08 08:55:16;;;;;;;1.65;1.05;;;;;;;18.72;48.49;100040.63;5026868;28;20021;-47
2023/01/08 08:57:43;;;;;;;2.17;1.30;;;;;;;18.75;48.65;100044.81;5023054;28;20038;-53
2023/01/08 09:00:09;;;;;;;1.95;1.23;;;;;;;18.73;48.35;100037.78;5005804;28;20049;-51
2023/01/08 09:02:34;;;;;;;2.95;1.30;;;;;;;18.78;48.18;100055.22;5023526;28;20028;-52
2023/01/08 09:04:59;;;;;;;3.35;1.73;;;;;;;18.78;48.12;100045.28;5021877;28;20018;-53
2023/01/08 09:07:25;;;;;;;2.35;1.30;;;;;;;18.79;48.23;100048.81;5013414;28;20045;-51
2023/01/08 09:09:50;;;;;;;2.30;1.52;;;;;;;18.80;48.25;100048.63;5018980;28;20029;-50
2023/01/08 09:12:15;;;;;;;2.53;1.65;;;;;;;18.82;48.66;100045.72;5014468;28;20033;-50
2023/01/08 09:14:41;;;;;;;4.07;1.27;;;;;;;18.78;48.44;100031.81;5026269;28;20018;-55
2023/01/08 09:17:06;;;;;;;3.63;1.58;;;;;;;18.82;48.47;100038.50;5026632;28;20099;-49
2023/01/08 09:19:31;;;;;;;2.47;1.30;;;;;;;18.83;48.41;100042.03;5025221;28;20057;-54
2023/01/08 09:21:56;;;;;;;3.03;1.40;;;;;;;18.84;48.28;100041.00;5026631;28;20057;-50
2023/01/08 09:24:22;;;;;;;3.08;1.20;;;;;;;18.84;48.31;100043.69;5026257;28;20087;-47
2023/01/08 09:26:47;;;;;;;3.05;1.27;;;;;;;18.83;48.39;100053.63;5025899;28;20029;-53
2023/01/08 09:29:12;;;;;;;2.13;1.27;;;;;;;18.85;48.41;100042.66;5025238;28;20042;-48
2023/01/08 09:31:37;;;;;;;2.05;1.23;;;;;;;18.84;48.40;100041.81;5014366;28;20065;-51
2023/01/08 09:34:03;;;;;;;2.85;1.40;;;;;;;18.84;48.23;100046.38;5006727;28;20030;-48
2023/01/08 09:36:28;;;;;;;3.95;1.45;;;;;;;18.87;48.25;100046.00;5006161;28;20121;-52
2023/01/08 09:38:53;;;;;;;2.63;1.30;;;;;;;18.86;47.93;100036.25;5006677;28;20041;-50
2023/01/08 09:41:22;;;;;;;2.70;1.30;;;;;;;18.85;48.33;100043.50;5006590;28;20685;-52
2023/01/08 09:43:49;;;;;;;2.80;1.40;;;;;;;18.84;48.13;100041.00;5006615;28;20026;-47
2023/01/08 09:46:17;;;;;;;3.20;1.30;;;;;;;18.85;48.34;100040.78;5011522;28;20030;-53
2023/01/08 09:48:43;;;;;;;3.58;1.30;;;;;;;18.85;47.94;100038.09;5006850;28;20076;-52
2023/01/08 09:51:11;;;;;;;2.28;1.13;;;;;;;18.85;48.07;100037.28;5021880;28;20026;-53
2023/01/08 09:53:36;;;;;;;2.20;1.35;;;;;;;18.86;47.92;100033.53;5014236;28;20021;-52
2023/01/08 09:56:04;;;;;;;4.22;1.55;;;;;;;18.86;48.38;100039.78;5014176;28;20467;-54
2023/01/08 09:58:37;;;;;;;2.20;1.10;;;;;;;18.85;47.89;100034.56;5002371;28;20021;-54
2023/01/08 10:01:03;;;;;;;2.53;1.35;;;;;;;18.82;47.89;100032.25;5022429;28;20014;-52
2023/01/08 10:03:36;;;;;;;4.93;1.40;;;;;;;18.86;47.98;100039.78;4995528;28;20053;-56
2023/01/08 10:06:08;;;;;;;3.45;1.35;;;;;;;18.86;48.02;100041.63;4996800;28;20050;-56
2023/01/08 10:08:33;;;;;;;2.45;1.00;;;;;;;18.86;48.01;100041.63;5021550;28;20414;-53
2023/01/08 10:10:58;;;;;;;2.20;1.08;;;;;;;18.84;48.06;100035.59;5019328;28;20434;-52
2023/01/08 10:13:24;;;;;;;3.35;1.52;;;;;;;18.88;48.21;100034.22;5008145;28;20040;-54
2023/01/08 10:15:51;;;;;;;2.10;1.27;;;;;;;18.89;47.86;100035.88;5015786;28;20022;-52
2023/01/08 10:18:18;;;;;;;1.25;0.95;;;;;;;18.87;48.04;100016.38;5018918;28;20061;-49
2023/01/08 10:20:43;;;;;;;4.55;1.10;;;;;;;18.92;48.00;100025.56;4987639;28;20034;-48
2023/01/08 10:23:14;;;;;;;2.05;1.00;;;;;;;18.96;48.07;100026.00;5009971;28;20028;-50
2023/01/08 10:25:56;;;;;;;2.45;1.17;;;;;;;19.00;47.66;100024.63;5016883;28;20018;-55
2023/01/08 10:28:21;;;;;;;6.28;2.15;;;;;;;19.05;47.54;100037.50;5005527;28;20026;-54
2023/01/08 10:30:47;;;;;;;3.80;2.00;;;;;;;19.02;47.61;100022.53;5021832;28;20053;-54
2023/01/08 10:33:45;;;;;;;6.78;2.08;;;;;;;19.02;47.87;100025.25;5010294;28;20030;-48
2023/01/08 10:36:17;;;;;;;13.27;2.35;;;;;;;19.02;47.91;100021.72;4970269;28;20041;-50
2023/01/08 10:38:55;;;;;;;7.13;1.88;;;;;;;19.03;47.71;100012.59;5018857;28;20052;-52
2023/01/08 10:41:21;;;;;;;7.72;2.22;;;;;;;19.05;47.60;100019.47;5018765;28;20018;-46
2023/01/08 10:43:46;;;;;;;6.75;1.85;;;;;;;19.05;48.02;100008.69;4996733;28;20030;-47
2023/01/08 10:46:22;;;;;;;8.18;1.77;;;;;;;19.05;48.04;99994.41;5024757;28;20026;-51
2023/01/08 10:48:51;;;;;;;8.07;1.77;;;;;;;19.06;47.84;99996.06;4991133;28;20019;-49
2023/01/08 10:51:22;;;;;;;7.45;1.48;;;;;;;19.06;47.94;99996.88;5024795;28;20069;-50
2023/01/08 10:53:48;;;;;;;6.00;2.10;;;;;;;19.03;48.28;99983.81;5015212;28;20464;-48
2023/01/08 10:56:40;;;;;;;7.75;2.40;;;;;;;19.07;48.05;99982.38;5004865;28;20030;-45
2023/01/08 10:59:05;;;;;;;6.80;1.65;;;;;;;19.09;48.27;99984.91;5012197;28;20026;-51
2023/01/08 11:01:30;;;;;;;5.63;1.75;;;;;;;19.09;48.03;99983.03;5013831;28;20036;-46
2023/01/08 11:04:03;;;;;;;6.05;2.28;;;;;;;19.11;48.26;99970.19;5012398;28;20022;-49
2023/01/08 11:06:30;;;;;;;3.40;1.40;;;;;;;19.10;48.29;99975.78;5016083;28;20034;-52
2023/01/08 11:08:58;;;;;;;7.15;1.98;;;;;;;19.10;48.38;99968.53;4992884;28;20045;-50
2023/01/08 11:11:23;;;;;;;6.50;1.65;;;;;;;19.11;48.05;99964.81;4996250;28;20486;-53
2023/01/08 11:14:00;;;;;;;4.20;1.30;;;;;;;19.13;47.95;99960.09;5001729;28;20021;-50
2023/01/08 11:16:37;;;;;;;7.43;1.55;;;;;;;19.15;47.89;99955.31;4998855;28;20018;-46
2023/01/08 11:19:03;;;;;;;3.97;1.95;;;;;;;19.17;48.26;99955.97;5005246;28;20057;-49
2023/01/08 11:21:30;;;;;;;4.20;1.40;;;;;;;19.18;47.93;99962.19;5006912;28;20034;-48
2023/01/08 11:24:17;;;;;;;4.80;1.70;;;;;;;19.18;47.82;99954.94;5024498;28;20100;-50
2023/01/08 11:27:04;;;;;;;4.13;1.17;;;;;;;19.17;47.87;99941.66;5006843;28;20025;-48
2023/01/08 11:30:04;;;;;;;3.95;1.60;;;;;;;19.14;48.08;99942.06;5024306;28;20022;-52